Tiempo atmosférico en la estación meteorológica de Albox, Almería (508 m.)



Fecha
DESCASC
Temp. máxima en grados centígrados (hora)
DESCASC
Temp. mínima en grados centígrados (hora)
DESCASC
Temp. media en grados centígrados
DESCASC
Racha de viento máxima en m/sg (hora)
DESCASC
Velocidad máxima media en intervalos de 10 minutos(hora)
DESCASC
Precipitaciones diarias en mm
DESCASC
Precipitaciones de 00:00 a 06:00 en mm
DESCASC
Precipitaciones de 06:00 a 12:00 en mm
DESCASC
Precipitaciones de 12:00 a 18:00 en mm
DESCASC
Precipitaciones de 18:00 a 24:00 en mm
DESCASC
17-08-2018 34.2 (15:10) 19.9 (07:50) 27.1 10.28 (16:50) 6.67 (16:50) 0.2 0 0 0 0.2
16-08-2018 33.5 (15:30) 19.8 (07:30) 26.6 10.28 (18:20) 7.22 (23:40) 0 0 0 0 0
15-08-2018 33.5 (16:10) 22.9 (06:40) 28.2 10.83 (15:50) 6.39 (16:00) 0 0 0 0 0
14-08-2018 34.9 (15:20) 23.4 (07:30) 29.2 10 (15:40) 6.11 (18:10) 0 0 0 0 0
13-08-2018 36.8 (16:10) 21.7 (05:30) 29.3 10.28 (15:40) 6.39 (15:40) 0 0 0 0 0
12-08-2018 34.7 (14:10) 19.6 (00:00) 27.2 9.44 (16:00) 6.11 (15:50) 0 0 0 0 0
11-08-2018 34.7 (15:10) 21.4 (00:00) 28.1 10.83 (11:30) 6.94 (11:30) 0 0 0 0 0
10-08-2018 34.4 (15:00) 20.6 (00:00) 27.5 10.28 (15:00) 5.83 (15:50) 0 0 0 0 0
09-08-2018 35.3 (14:20) 20.7 (00:00) 28 10.28 (17:50) 6.11 (17:50) 0 0 0 0 0
08-08-2018 35.8 (14:30) 21.2 (00:00) 28.5 10 (16:30) 7.22 (16:30) 0 0 0 0 0
07-08-2018 35.2 (14:40) 21.7 (00:00) 28.5 11.39 (18:40) 7.5 (22:10) 0 0 0 0 0
06-08-2018 37.4 (13:40) 22.7 (00:00) 30.1 11.67 (15:40) 7.78 (16:00) 0 0 0 0 0
05-08-2018 37.6 (14:20) 22.2 (00:00) 29.9 10.56 (18:00) 6.94 (18:00) 0 0 0 0 0
04-08-2018 36.8 (15:10) 21.7 (06:50) 29.3 8.89 (17:30) 5.28 (13:10) 0 0 0 0 0
03-08-2018 37.5 (14:20) 22.8 (00:00) 30.1 10.28 (18:00) 7.22 (18:00) 0 0 0 0 0
02-08-2018 37.5 (16:10) 21.9 (00:00) 29.7 8.61 (15:40) 5.28 (12:30) 0 0 0 0 0
01-08-2018 37.8 (15:40) 21.6 (07:30) 29.7 9.72 (16:20) 5.83 (16:00) 0 0 0 0 0
31-07-2018 37.6 (16:40) 21.4 (00:00) 29.5 8.89 (15:30) 5.28 (15:30) 0 0 0 0 0
30-07-2018 38.1 (15:30) 22.7 (00:00) 30.4 9.44 (16:40) 6.39 (18:20) 0 0 0 0 0
29-07-2018 37.8 (14:20) 23.5 (00:00) 30.6 10.28 (15:10) 6.67 (14:30) 0 0 0 0 0
28-07-2018 38.4 (16:20) 19.9 (00:00) 29.2 10.28 (15:00) 6.67 (14:20) 0 0 0 0 0
27-07-2018 34.5 (14:50) 19.7 (00:00) 27.1 10.56 (17:30) 7.22 (17:50) 0 0 0 0 0
26-07-2018 35.2 (15:30) 19.7 (00:00) 27.5 9.72 (15:40) 6.67 (16:10) 0 0 0 0 0
25-07-2018 36.1 (14:30) 22.4 (00:00) 29.2 10 (17:00) 6.94 (17:20) 0 0 0 0 0
24-07-2018 36.4 (15:10) 19.6 (00:00) 28 10 (16:50) 6.39 (16:50) 0 0 0 0 0
23-07-2018 34.2 (15:40) 20.4 (00:00) 27.3 8.89 (16:40) 5.56 (16:40) 0 0 0 0 0
22-07-2018 33.3 (14:10) 20.8 (00:00) 27 10.83 (15:10) 6.39 (15:50) 0 0 0 0 0
21-07-2018 34.1 (15:50) 23 (00:00) 28.5 9.72 (17:00) 6.67 (17:00) 0 0 0 0 0
20-07-2018 36.2 (17:20) 21.9 (00:00) 29.1 8.89 (13:50) 5.56 (14:00) 0 0 0 0 0

Gráficas

Temp. máximas Temp. mínimas Temp. medias Precipitaciones Rachas de viento máximas Velocidades máximas media en intervalos de 10 minutos

Datos horarios

Fecha y hora oficial Temperatura (ºC) Velocidad del viento (km/h) Dirección del viento Racha (km/h) Dirección de racha Precipitación (mm) Presión (hPa) Tendencia (hPa) Humedad (%)
2018-08-18 23:00:00 23.7 6 Sudeste 17 Este 0 -- -- 73
2018-08-18 22:00:00 24 9 Este 18 Este 0 -- -- 71
2018-08-18 21:00:00 24.8 7 Sudeste 24 Este 0 -- -- 71
2018-08-18 20:00:00 26.3 12 Este 30 Sudeste 0 -- -- 65
2018-08-18 19:00:00 27.4 17 Sudeste 30 Este 0 -- -- 61
2018-08-18 18:00:00 28.6 19 Sudeste 35 Este 0 -- -- 56
2018-08-18 17:00:00 30.6 18 Sudeste 34 Sudeste 0 -- -- 46
2018-08-18 16:00:00 32.5 18 Sudeste 34 Sudeste 0 -- -- 40
2018-08-18 15:00:00 31.7 18 Este 32 Este 0 -- -- 45
2018-08-18 14:00:00 30.9 12 Sudeste 26 Sudeste 0 -- -- 45
2018-08-18 13:00:00 29.7 12 Este 22 Este 0 -- -- 47
2018-08-18 12:00:00 27.1 9 Este 20 Este 0 -- -- 56
2018-08-18 11:00:00 25.7 11 Este 19 Este 0 -- -- 62
2018-08-18 10:00:00 23.1 10 Este 22 Sudeste 0 -- -- 71
2018-08-18 09:00:00 22.2 14 Este 21 Este 0 -- -- 80
2018-08-18 08:00:00 22.2 6 Este 10 Este 0 -- -- 81
2018-08-18 07:00:00 22.1 3 Este 9 Sudoeste 0 -- -- 77
2018-08-18 06:00:00 22.2 3 Sudoeste 6 Norte 0 -- -- 76
2018-08-18 05:00:00 22 0 Calma 8 Noroeste 0 -- -- 77
2018-08-18 04:00:00 21.5 6 Noroeste 10 Noroeste 0 -- -- 79
2018-08-18 03:00:00 21.5 6 Noroeste 8 Noroeste 0 -- -- 78
2018-08-18 02:00:00 21.6 3 Este 10 Este 0 -- -- 78
2018-08-18 01:00:00 21.7 5 Nordeste 13 Este 0 -- -- 77
2018-08-18 00:00:00 22.4 2 Sudeste 10 Este 0 -- -- 70
2018-08-17 23:00:00 23 4 Este 8 Este 0 -- -- 68
2018-08-17 22:00:00 23.8 4 Sudeste 12 Este 0 -- -- 66
2018-08-17 21:00:00 24.9 7 Sudeste 13 Sudeste 0 -- -- 63
2018-08-17 20:00:00 27.4 7 Sudeste 12 Sudeste 0 -- -- 55
2018-08-17 19:00:00 26.1 8 Sudeste 19 Sudeste 0.2 -- -- 61
2018-08-17 18:00:00 26.4 17 Este 36 Este 0 -- -- 58
2018-08-17 17:00:00 30.6 20 Este 37 Este 0 -- -- 42
2018-08-17 16:00:00 34.1 19 Sudeste 33 Sudeste 0 -- -- 36
2018-08-17 15:00:00 34 18 Sudeste 32 Sudeste 0 -- -- 35
2018-08-17 14:00:00 33.2 12 Sudeste 26 Sudeste 0 -- -- 36
2018-08-17 13:00:00 31.7 11 Este 24 Sudeste 0 -- -- 36
2018-08-17 12:00:00 30.1 9 Sur 18 Sudeste 0 -- -- 38
2018-08-17 11:00:00 27.7 7 Sudeste 13 Sudeste 0 -- -- 43
2018-08-17 10:00:00 24.7 3 Sudeste 6 Sudeste 0 -- -- 57
2018-08-17 09:00:00 21.4 3 Sudeste 8 Norte 0 -- -- 60
2018-08-17 08:00:00 20 0 Calma 11 Nordeste 0 -- -- 63
2018-08-17 07:00:00 20.1 7 Norte 13 Sudoeste 0 -- -- 61
2018-08-17 06:00:00 20.5 5 Noroeste 10 Oeste 0 -- -- 57
2018-08-17 05:00:00 20.9 2 Sur 6 Nordeste 0 -- -- 58
2018-08-17 04:00:00 21 8 Nordeste 9 Nordeste 0 -- -- 55
2018-08-17 03:00:00 21.7 5 Nordeste 6 Nordeste 0 -- -- 53
2018-08-17 02:00:00 22.1 2 Sudeste 10 Norte 0 -- -- 53
2018-08-17 01:00:00 22.7 3 Nordeste 13 Oeste 0 -- -- 53
2018-08-17 00:00:00 23.6 15 Oeste 35 Oeste 0 -- -- 49
2018-08-16 23:00:00 23.1 12 Oeste 27 Oeste 0 -- -- 53
2018-08-16 22:00:00 24 13 Sudoeste 32 Oeste 0 -- -- 64
2018-08-16 21:00:00 24.2 10 Oeste 18 Noroeste 0 -- -- 64
2018-08-16 20:00:00 25.4 6 Oeste 14 Sudeste 0 -- -- 63
2018-08-16 19:00:00 26.7 8 Sudeste 37 Sudeste 0 -- -- 52
2018-08-16 18:00:00 26.7 13 Sudeste 34 Este 0 -- -- 60
2018-08-16 17:00:00 27.8 17 Sudeste 31 Sudeste 0 -- -- 54
2018-08-16 16:00:00 30.6 18 Sudeste 31 Este 0 -- -- 44
2018-08-16 15:00:00 33.2 13 Este 28 Este 0 -- -- 39
2018-08-16 14:00:00 32.2 15 Sudeste 33 Sudeste 0 -- -- 43
2018-08-16 13:00:00 31.5 16 Sudeste 30 Este 0 -- -- 46
2018-08-16 12:00:00 29.6 13 Sudeste 26 Sudeste 0 -- -- 54
2018-08-16 11:00:00 27.3 6 Sudeste 14 Sudeste 0 -- -- 61
2018-08-16 10:00:00 24.2 4 Oeste 11 Sudoeste 0 -- -- 75
2018-08-16 09:00:00 22 6 Oeste 10 Norte 0 -- -- 79
2018-08-16 08:00:00 20.1 6 Norte 10 Norte 0 -- -- 84
2018-08-16 07:00:00 20.5 5 Norte 8 Nordeste 0 -- -- 91
2018-08-16 06:00:00 20.9 2 Norte 5 Oeste 0 -- -- 90
2018-08-16 05:00:00 21.7 3 Noroeste 5 Oeste 0 -- -- 89
2018-08-16 04:00:00 22.1 3 Sur 7 Sur 0 -- -- 89
2018-08-16 03:00:00 22.3 3 Nordeste 9 Este 0 -- -- 86
2018-08-16 02:00:00 22.9 6 Este 11 Este 0 -- -- 86
2018-08-16 01:00:00 22.8 6 Este 14 Este 0 -- -- 85
2018-08-16 00:00:00 23 6 Este 9 Este 0 -- -- 82
2018-08-15 23:00:00 24.1 0 Calma 2 Oeste 0 -- -- 76
2018-08-15 22:00:00 24.5 2 Sudeste 15 Sudeste 0 -- -- 75
2018-08-15 21:00:00 25.5 10 Sudeste 19 Sudeste 0 -- -- 72
2018-08-15 20:00:00 26.1 10 Este 30 Este 0 -- -- 70
2018-08-15 19:00:00 27 19 Este 30 Este 0 -- -- 65
2018-08-15 18:00:00 28.9 17 Sudeste 34 Sudeste 0 -- -- 58
2018-08-15 17:00:00 31.6 18 Sudeste 38 Sudeste 0 -- -- 51
2018-08-15 16:00:00 33.3 23 Este 39 Este 0 -- -- 49
2018-08-15 15:00:00 33.2 20 Sudeste 34 Este 0 -- -- 50
2018-08-15 14:00:00 32.3 14 Este 31 Este 0 -- -- 50
2018-08-15 13:00:00 31.4 13 Este 26 Este 0 -- -- 53
2018-08-15 12:00:00 28.6 11 Sudeste 23 Este 0 -- -- 61
2018-08-15 11:00:00 28.1 12 Este 21 Este 0 -- -- 66
2018-08-15 10:00:00 25.2 4 Sudeste 10 Sur 0 -- -- 77
2018-08-15 09:00:00 24.1 3 Sudeste 6 Este 0 -- -- 81
2018-08-15 08:00:00 23 0 Calma 2 Sudoeste 0 -- -- 83
2018-08-15 07:00:00 23 0 Calma 5 Sudeste 0 -- -- 82
2018-08-15 06:00:00 23.1 -- -- -- -- 0 -- -- 82
2018-08-15 05:00:00 23.3 0 Calma 4 Oeste 0 -- -- 80
2018-08-15 04:00:00 23.6 3 Oeste 5 Oeste 0 -- -- 82
2018-08-15 03:00:00 23.9 3 Oeste 4 Oeste 0 -- -- 82
2018-08-15 02:00:00 23.8 4 Sudoeste 6 Sudoeste 0 -- -- 82
2018-08-15 01:00:00 24.3 0 Calma 8 Sudeste 0 -- -- 82
2018-08-15 00:00:00 24.5 5 Sudeste 9 Sudeste 0 -- -- 82
2018-08-14 23:00:00 25 6 Sudeste 12 Este 0 -- -- 80
2018-08-14 22:00:00 25.7 6 Este 15 Sudeste 0 -- -- 76
2018-08-14 21:00:00 27.2 9 Sudeste 25 Este 0 -- -- 70
2018-08-14 20:00:00 29.4 18 Este 30 Este 0 -- -- 61
2018-08-14 19:00:00 31.8 18 Este 32 Este 0 -- -- 50
2018-08-14 18:00:00 33 21 Este 33 Este 0 -- -- 46
2018-08-14 17:00:00 34.3 20 Este 33 Sudeste 0 -- -- 41
2018-08-14 16:00:00 34.5 18 Sudeste 36 Sudeste 0 -- -- 39
2018-08-14 15:00:00 34.8 18 Sudeste 34 Este 0 -- -- 39
2018-08-14 14:00:00 34.4 19 Sudeste 33 Este 0 -- -- 40
2018-08-14 13:00:00 34.5 18 Sudeste 31 Sudeste 0 -- -- 39
2018-08-14 12:00:00 33.7 15 Este 26 Este 0 -- -- 34
2018-08-14 11:00:00 31.9 16 Este 26 Este 0 -- -- 33
2018-08-14 10:00:00 29.6 14 Este 22 Este 0 -- -- 35
2018-08-14 09:00:00 26.1 7 Noroeste 22 Oeste 0 -- -- 42
2018-08-14 08:00:00 23.8 13 Noroeste 19 Oeste 0 -- -- 46
2018-08-14 07:00:00 23.8 13 Noroeste 19 Noroeste 0 -- -- 45
2018-08-14 06:00:00 24.3 14 Oeste 21 Oeste 0 -- -- 42
2018-08-14 05:00:00 26 17 Oeste 24 Oeste 0 -- -- 39
2018-08-14 04:00:00 26.6 17 Oeste 28 Oeste 0 -- -- 36
2018-08-14 03:00:00 26.9 19 Oeste 27 Oeste 0 -- -- 34
2018-08-14 02:00:00 25.6 17 Oeste 25 Oeste 0 -- -- 37
2018-08-14 01:00:00 25.4 12 Oeste 18 Oeste 0 -- -- 40
2018-08-14 00:00:00 25.7 4 Norte 12 Oeste 0 -- -- 58
2018-08-13 23:00:00 27 5 Sudoeste 9 Nordeste 0 -- -- 58
2018-08-13 22:00:00 28.2 6 Nordeste 22 Nordeste 0 -- -- 49
2018-08-13 21:00:00 30.8 10 Este 20 Este 0 -- -- 48
2018-08-13 20:00:00 33.5 15 Este 28 Este 0 -- -- 36
2018-08-13 19:00:00 34.7 18 Este 29 Este 0 -- -- 36
2018-08-13 18:00:00 36 18 Este 33 Sudeste 0 -- -- 38
2018-08-13 17:00:00 36.4 20 Este 33 Este 0 -- -- 39
2018-08-13 16:00:00 36.6 17 Sudeste 37 Este 0 -- -- 41
2018-08-13 15:00:00 36 14 Sudeste 26 Sur 0 -- -- 42
2018-08-13 14:00:00 33.8 11 Sudeste 23 Sudeste 0 -- -- 41
2018-08-13 13:00:00 32.1 9 Sudeste 15 Sudeste 0 -- -- 44
2018-08-13 12:00:00 30.4 7 Sudeste 13 Sur 0 -- -- 54
2018-08-13 11:00:00 27.2 6 Sur 13 Sudeste 0 -- -- 65
2018-08-13 10:00:00 25.2 3 Sudoeste 12 Sudoeste 0 -- -- 75
2018-08-13 09:00:00 23.1 5 Noroeste 9 Noroeste 0 -- -- 81
2018-08-13 08:00:00 22 3 Noroeste 7 Noroeste 0 -- -- 87
2018-08-13 07:00:00 22 3 Noroeste 11 Este 0 -- -- 91
2018-08-13 06:00:00 21.9 6 Este 13 Nordeste 0 -- -- 92
2018-08-13 05:00:00 22.2 3 Noroeste 5 Oeste 0 -- -- 84
2018-08-13 04:00:00 22.9 2 Oeste 5 Noroeste 0 -- -- 87
2018-08-13 03:00:00 23.4 0 Calma 6 Nordeste 0 -- -- 86
2018-08-13 02:00:00 24 0 Calma 8 Sudoeste 0 -- -- 84
2018-08-13 01:00:00 24.4 0 Calma 11 Noroeste 0 -- -- 84
2018-08-13 00:00:00 24.5 7 Sur 12 Oeste 0 -- -- 85
2018-08-12 23:00:00 24.9 8 Este 18 Este 0 -- -- 83
2018-08-12 22:00:00 25.7 13 Este 19 Este 0 -- -- 76
2018-08-12 21:00:00 27.6 7 Sudeste 26 Este 0 -- -- 66
2018-08-12 20:00:00 29.7 19 Este 28 Este 0 -- -- 52
2018-08-12 19:00:00 32.7 14 Este 23 Este 0 -- -- 46
2018-08-12 18:00:00 32.7 15 Sudeste 25 Este 0 -- -- 45
2018-08-12 17:00:00 33.6 17 Este 33 Este 0 -- -- 42
2018-08-12 16:00:00 34.2 21 Sudeste 34 Este 0 -- -- 43
2018-08-12 15:00:00 34.5 21 Sudeste 33 Sudeste 0 -- -- 42
2018-08-12 14:00:00 34.5 20 Este 33 Este 0 -- -- 39
2018-08-12 13:00:00 33.5 13 Sudeste 25 Este 0 -- -- 36
2018-08-12 12:00:00 30.7 6 Sur 17 Este 0 -- -- 43
2018-08-12 11:00:00 28.3 6 Sudeste 17 Sudeste 0 -- -- 50
2018-08-12 10:00:00 25.1 5 Sudeste 10 Este 0 -- -- 59
2018-08-12 09:00:00 22.9 5 Este 8 Este 0 -- -- 65
2018-08-12 08:00:00 20 5 Noroeste 10 Norte 0 -- -- 71
2018-08-12 07:00:00 19.8 6 Norte 10 Norte 0 -- -- 73
2018-08-12 06:00:00 20.4 5 Noroeste 11 Oeste 0 -- -- 81
2018-08-12 05:00:00 20.8 6 Noroeste 11 Noroeste 0 -- -- 82
2018-08-12 04:00:00 21.7 7 Noroeste 9 Noroeste 0 -- -- 88
2018-08-12 03:00:00 22.1 6 Norte 8 Norte 0 -- -- 89
2018-08-12 02:00:00 22.2 5 Norte 7 Norte 0 -- -- 88
2018-08-12 01:00:00 23.3 3 Este 9 Este 0 -- -- 85
2018-08-12 00:00:00 23.7 9 Este 14 Este 0 -- -- 86
2018-08-11 23:00:00 24.3 9 Este 15 Nordeste 0 -- -- 80
2018-08-11 22:00:00 25.1 7 Este 10 Este 0 -- -- 75
2018-08-11 21:00:00 26.4 8 Sudeste 13 Sudeste 0 -- -- 69
2018-08-11 20:00:00 28.1 8 Sudeste 21 Sudeste 0 -- -- 63
2018-08-11 19:00:00 29.6 10 Sudeste 26 Sudeste 0 -- -- 59
2018-08-11 18:00:00 29.4 18 Sudeste 30 Sudeste 0 -- -- 57
2018-08-11 17:00:00 31.5 18 Sudeste 31 Sudeste 0 -- -- 52
2018-08-11 16:00:00 34.5 17 Sudeste 32 Este 0 -- -- 44
2018-08-11 15:00:00 34.6 20 Este 35 Sudeste 0 -- -- 44
2018-08-11 14:00:00 34 19 Este 33 Este 0 -- -- 41
2018-08-11 13:00:00 32.1 17 Este 30 Este 0 -- -- 45
2018-08-11 12:00:00 30.6 18 Este 39 Este 0 -- -- 50
2018-08-11 11:00:00 27.8 12 Este 22 Este 0 -- -- 57
2018-08-11 10:00:00 25.8 5 Este 12 Este 0 -- -- 65
2018-08-11 09:00:00 23 0 Calma 6 Noroeste 0 -- -- 75
2018-08-11 08:00:00 21.5 6 Norte 8 Nordeste 0 -- -- 79
2018-08-11 07:00:00 21.8 3 Norte 5 Oeste 0 -- -- 77
2018-08-11 06:00:00 22.2 4 Oeste 6 Noroeste 0 -- -- 76
2018-08-11 05:00:00 22.4 5 Noroeste 10 Nordeste 0 -- -- 75
2018-08-11 04:00:00 22.9 3 Noroeste 5 Noroeste 0 -- -- 76
2018-08-11 03:00:00 23.4 4 Noroeste 6 Oeste 0 -- -- 75
2018-08-11 02:00:00 23.8 2 Nordeste 13 Este 0 -- -- 77
2018-08-11 01:00:00 24.2 9 Este 22 Este 0 -- -- 75
2018-08-11 00:00:00 24.9 9 Sudeste 16 Sudeste 0 -- -- 82
2018-08-10 23:00:00 25.6 6 Este 16 Este 0 -- -- 79
2018-08-10 22:00:00 25.8 8 Sudeste 22 Este 0 -- -- 77
2018-08-10 21:00:00 27.2 15 Sudeste 26 Este 0 -- -- 66
2018-08-10 20:00:00 29.9 13 Sudeste 29 Sudeste 0 -- -- 51
2018-08-10 19:00:00 31.7 17 Sudeste 30 Sudeste 0 -- -- 50
2018-08-10 18:00:00 32.8 17 Sudeste 30 Sudeste 0 -- -- 50
2018-08-10 17:00:00 32.6 19 Sudeste 35 Sudeste 0 -- -- 53
2018-08-10 16:00:00 32.9 19 Sudeste 37 Este 0 -- -- 52
2018-08-10 15:00:00 34.4 19 Sudeste 37 Sudeste 0 -- -- 46
2018-08-10 14:00:00 33.3 15 Sudeste 31 Este 0 -- -- 44
2018-08-10 13:00:00 31.7 20 Este 31 Este 0 -- -- 43
2018-08-10 12:00:00 29.6 15 Este 33 Este 0 -- -- 50
2018-08-10 11:00:00 27.8 9 Este 23 Nordeste 0 -- -- 53
2018-08-10 10:00:00 24.8 3 Sudoeste 8 Sudoeste 0 -- -- 64
2018-08-10 09:00:00 22.4 4 Sudoeste 7 Norte 0 -- -- 67
2018-08-10 08:00:00 20.7 5 Noroeste 12 Norte 0 -- -- 64
2018-08-10 07:00:00 20.7 3 Norte 5 Oeste 0 -- -- 69
2018-08-10 06:00:00 20.9 6 Noroeste 9 Oeste 0 -- -- 64
2018-08-10 05:00:00 21.7 0 Calma 5 Nordeste 0 -- -- 68
2018-08-10 04:00:00 22.1 3 Noroeste 9 Este 0 -- -- 67
2018-08-10 03:00:00 22.6 8 Este 12 Este 0 -- -- 65
2018-08-10 02:00:00 23.6 4 Noroeste 10 Noroeste 0 -- -- 60
2018-08-10 01:00:00 24.3 6 Noroeste 8 Noroeste 0 -- -- 61
2018-08-10 00:00:00 24.8 2 Sudoeste 6 Sudeste 0 -- -- 58
2018-08-09 23:00:00 25.6 4 Este 6 Sudeste 0 -- -- 58
2018-08-09 22:00:00 26.7 4 Sudeste 11 Sudeste 0 -- -- 54
2018-08-09 21:00:00 28.5 8 Este 17 Sudeste 0 -- -- 49
2018-08-09 20:00:00 30.4 10 Sudeste 22 Sudeste 0 -- -- 47
2018-08-09 19:00:00 31.4 14 Este 31 Este 0 -- -- 45
2018-08-09 18:00:00 33.7 19 Este 37 Este 0 -- -- 42
2018-08-09 17:00:00 34.9 15 Este 29 Este 0 -- -- 41
2018-08-09 16:00:00 35 19 Sudeste 33 Este 0 -- -- 42
2018-08-09 15:00:00 35 20 Este 32 Este 0 -- -- 42
2018-08-09 14:00:00 35.2 17 Este 29 Este 0 -- -- 39
2018-08-09 13:00:00 34 11 Sudeste 23 Sudeste 0 -- -- 37
2018-08-09 12:00:00 31.5 7 Sudeste 15 Este 0 -- -- 40
2018-08-09 11:00:00 28.1 4 Sudeste 9 Sudeste 0 -- -- 47
2018-08-09 10:00:00 25.1 2 Oeste 9 Sur 0 -- -- 60
2018-08-09 09:00:00 23.1 3 Sudoeste 9 Noroeste 0 -- -- 68
2018-08-09 08:00:00 20.7 5 Noroeste 8 Noroeste 0 -- -- 74
2018-08-09 07:00:00 21.3 5 Norte 12 Nordeste 0 -- -- 81
2018-08-09 06:00:00 21.6 9 Nordeste 12 Nordeste 0 -- -- 77
2018-08-09 05:00:00 22.8 5 Sudeste 10 Sudeste 0 -- -- 73
2018-08-09 04:00:00 23.5 4 Sudoeste 17 Sudoeste 0 -- -- 70
2018-08-09 03:00:00 24.1 4 Noroeste 13 Norte 0 -- -- 68
2018-08-09 02:00:00 23.9 7 Norte 10 Norte 0 -- -- 72
2018-08-09 01:00:00 23.9 6 Norte 9 Norte 0 -- -- 76
2018-08-09 00:00:00 24.6 5 Este 18 Este 0 -- -- 74
2018-08-08 23:00:00 24.9 9 Sudeste 22 Sudeste 0 -- -- 73
2018-08-08 22:00:00 25.6 6 Sudeste 13 Sudeste 0 -- -- 71
2018-08-08 21:00:00 26.7 8 Este 23 Este 0 -- -- 67
2018-08-08 20:00:00 29.8 15 Este 30 Este 0 -- -- 59
2018-08-08 19:00:00 31.4 19 Este 30 Este 0 -- -- 53
2018-08-08 18:00:00 32.9 17 Sudeste 33 Este 0 -- -- 48
2018-08-08 17:00:00 33.1 22 Este 36 Este 0 -- -- 44
2018-08-08 16:00:00 34.7 25 Este 35 Este 0 -- -- 38
2018-08-08 15:00:00 35.7 21 Este 35 Este 0 -- -- 35
2018-08-08 14:00:00 35.3 20 Sudeste 33 Sudeste 0 -- -- 36
2018-08-08 13:00:00 34.4 18 Este 27 Este 0 -- -- 34
2018-08-08 12:00:00 33 15 Este 23 Sudeste 0 -- -- 37
2018-08-08 11:00:00 29.5 7 Sudeste 13 Sudeste 0 -- -- 49
2018-08-08 10:00:00 26.1 3 Sudoeste 9 Este 0 -- -- 61
2018-08-08 09:00:00 25.1 7 Este 10 Este 0 -- -- 62
2018-08-08 08:00:00 22 6 Norte 10 Norte 0 -- -- 69
2018-08-08 07:00:00 21.9 2 Oeste 7 Sudoeste 0 -- -- 68
2018-08-08 06:00:00 22.1 3 Noroeste 10 Oeste 0 -- -- 68
2018-08-08 05:00:00 22.4 3 Oeste 12 Norte 0 -- -- 69
2018-08-08 04:00:00 22.9 8 Noroeste 11 Noroeste 0 -- -- 71
2018-08-08 03:00:00 22.8 6 Norte 9 Nordeste 0 -- -- 76
2018-08-08 02:00:00 23.2 5 Norte 6 Norte 0 -- -- 78
2018-08-08 01:00:00 24.2 5 Noroeste 6 Noroeste 0 -- -- 77
2018-08-08 00:00:00 24.7 4 Este 17 Este 0 -- -- 75
2018-08-07 23:00:00 25.5 14 Este 41 Este 0 -- -- 69
2018-08-07 22:00:00 28.2 13 Este 32 Este 0 -- -- 57
2018-08-07 21:00:00 31 7 Sur 23 Este 0 -- -- 26
2018-08-07 20:00:00 31.1 11 Sur 33 Noroeste 0 -- -- 28
2018-08-07 19:00:00 31.2 19 Oeste 41 Noroeste 0 -- -- 27
2018-08-07 18:00:00 30.7 11 Norte 29 Nordeste 0 -- -- 33
2018-08-07 17:00:00 33 19 Este 36 Este 0 -- -- 42
2018-08-07 16:00:00 33.6 18 Este 36 Este 0 -- -- 44
2018-08-07 15:00:00 34.2 21 Este 34 Este 0 -- -- 42
2018-08-07 14:00:00 34.8 18 Este 30 Este 0 -- -- 40
2018-08-07 13:00:00 34.4 17 Este 27 Este 0 -- -- 37
2018-08-07 12:00:00 32.6 9 Este 20 Este 0 -- -- 37
2018-08-07 11:00:00 30.4 9 Sudeste 15 Este 0 -- -- 43
2018-08-07 10:00:00 27.2 4 Este 9 Sudeste 0 -- -- 50
2018-08-07 09:00:00 23.7 2 Oeste 7 Norte 0 -- -- 55
2018-08-07 08:00:00 22.2 5 Norte 13 Noroeste 0 -- -- 57
2018-08-07 07:00:00 21.8 5 Noroeste 8 Noroeste 0 -- -- 59
2018-08-07 06:00:00 22.1 0 Calma 13 Nordeste 0 -- -- 63
2018-08-07 05:00:00 22.1 6 Nordeste 13 Nordeste 0 -- -- 63
2018-08-07 04:00:00 23 5 Oeste 8 Noroeste 0 -- -- 61
2018-08-07 03:00:00 23.3 8 Noroeste 13 Oeste 0 -- -- 62
2018-08-07 02:00:00 23.5 12 Oeste 15 Noroeste 0 -- -- 64
2018-08-07 01:00:00 24.1 0 Calma 6 Sudoeste 0 -- -- 61
2018-08-07 00:00:00 24.8 6 Sudoeste 8 Sudoeste 0 -- -- 59
2018-08-06 23:00:00 25.9 4 Sudeste 10 Sudeste 0 -- -- 55
2018-08-06 22:00:00 27.6 6 Sudeste 17 Este 0 -- -- 50
2018-08-06 21:00:00 29.7 12 Este 24 Este 0 -- -- 44
2018-08-06 20:00:00 32.2 15 Este 26 Este 0 -- -- 39
2018-08-06 19:00:00 31.2 14 Este 27 Este 0 -- -- 41
2018-08-06 18:00:00 31.3 13 Este 33 Este 0 -- -- 43
2018-08-06 17:00:00 32.7 24 Este 40 Este 0 -- -- 39
2018-08-06 16:00:00 36.6 28 Este 42 Este 0 -- -- 33
2018-08-06 15:00:00 36.4 26 Este 42 Este 0 -- -- 32
2018-08-06 14:00:00 37.1 23 Este 36 Este 0 -- -- 30
2018-08-06 13:00:00 36.3 17 Este 27 Este 0 -- -- 29
2018-08-06 12:00:00 35.1 10 Este 22 Este 0 -- -- 30
2018-08-06 11:00:00 32.6 9 Este 13 Este 0 -- -- 33
2018-08-06 10:00:00 28.6 5 Sur 7 Sur 0 -- -- 39
2018-08-06 09:00:00 25.3 4 Noroeste 9 Oeste 0 -- -- 45
2018-08-06 08:00:00 22.7 8 Oeste 15 Noroeste 0 -- -- 49
2018-08-06 07:00:00 23.5 12 Norte 15 Norte 0 -- -- 47
2018-08-06 06:00:00 22.7 5 Norte 6 Nordeste 0 -- -- 50
2018-08-06 05:00:00 23.6 3 Norte 10 Noroeste 0 -- -- 47
2018-08-06 04:00:00 23.8 4 Norte 7 Noroeste 0 -- -- 47
2018-08-06 03:00:00 24.4 3 Sudoeste 8 Oeste 0 -- -- 48
2018-08-06 02:00:00 25 4 Noroeste 5 Noroeste 0 -- -- 45
2018-08-06 01:00:00 25.8 5 Nordeste 6 Nordeste 0 -- -- 46
2018-08-06 00:00:00 26.9 4 Este 8 Este 0 -- -- 43
2018-08-05 23:00:00 28.4 5 Este 10 Este 0 -- -- 40
2018-08-05 22:00:00 29.1 5 Este 16 Sudeste 0 -- -- 36
2018-08-05 21:00:00 30.8 12 Este 23 Este 0 -- -- 33
2018-08-05 20:00:00 32.5 13 Este 31 Este 0 -- -- 32
2018-08-05 19:00:00 34.2 23 Este 36 Este 0 -- -- 29
2018-08-05 18:00:00 35.4 25 Este 38 Este 0 -- -- 27
2018-08-05 17:00:00 37.1 18 Sudeste 32 Este 0 -- -- 23
2018-08-05 16:00:00 36.9 19 Sudeste 36 Este 0 -- -- 27
2018-08-05 15:00:00 37.2 21 Sudeste 36 Este 0 -- -- 24
2018-08-05 14:00:00 37.3 20 Sudeste 35 Este 0 -- -- 24
2018-08-05 13:00:00 36.7 17 Este 31 Este 0 -- -- 24
2018-08-05 12:00:00 34.9 9 Sudeste 24 Este 0 -- -- 26
2018-08-05 11:00:00 31.5 5 Sudeste 14 Sudeste 0 -- -- 32
2018-08-05 10:00:00 29 5 Sudeste 9 Sudeste 0 -- -- 35
2018-08-05 09:00:00 26.5 3 Este 9 Norte 0 -- -- 37
2018-08-05 08:00:00 22.7 7 Noroeste 10 Noroeste 0 -- -- 40
2018-08-05 07:00:00 22.5 6 Noroeste 9 Noroeste 0 -- -- 40
2018-08-05 06:00:00 23 8 Norte 10 Noroeste 0 -- -- 41
2018-08-05 05:00:00 22.8 4 Noroeste 10 Noroeste 0 -- -- 44
2018-08-05 04:00:00 23.7 7 Norte 13 Noroeste 0 -- -- 43
2018-08-05 03:00:00 24.2 8 Noroeste 9 Noroeste 0 -- -- 46
2018-08-05 02:00:00 24.5 5 Noroeste 8 Noroeste 0 -- -- 50
2018-08-05 01:00:00 25.3 5 Noroeste 6 Noroeste 0 -- -- 48
2018-08-05 00:00:00 26 0 Calma 4 Oeste 0 -- -- 46
2018-08-04 23:00:00 26.4 0 Calma 13 Este 0 -- -- 45
2018-08-04 22:00:00 27.4 6 Este 17 Este 0 -- -- 45
2018-08-04 21:00:00 29.6 11 Este 24 Este 0 -- -- 40
2018-08-04 20:00:00 32.3 14 Este 26 Este 0 -- -- 33
2018-08-04 19:00:00 34.2 16 Este 27 Este 0 -- -- 32
2018-08-04 18:00:00 35.7 16 Sudeste 32 Este 0 -- -- 29
2018-08-04 17:00:00 36.5 18 Sudeste 31 Este 0 -- -- 29
2018-08-04 16:00:00 36.6 16 Sudeste 30 Sudeste 0 -- -- 29
2018-08-04 15:00:00 36.6 15 Sudeste 31 Sudeste 0 -- -- 28
2018-08-04 14:00:00 35.6 16 Sudeste 29 Este 0 -- -- 29
2018-08-04 13:00:00 35.7 16 Sudeste 31 Sudeste 0 -- -- 29
2018-08-04 12:00:00 33.4 8 Sudeste 19 Este 0 -- -- 29
2018-08-04 11:00:00 31.4 7 Sudeste 15 Este 0 -- -- 34
2018-08-04 10:00:00 29.3 8 Este 13 Este 0 -- -- 39
2018-08-04 09:00:00 26.6 6 Este 9 Este 0 -- -- 45
2018-08-04 08:00:00 22.7 6 Noroeste 12 Oeste 0 -- -- 54
2018-08-04 07:00:00 21.7 7 Oeste 11 Oeste 0 -- -- 58
2018-08-04 06:00:00 22.4 4 Noroeste 7 Noroeste 0 -- -- 53
2018-08-04 05:00:00 22.5 3 Oeste 6 Oeste 0 -- -- 52
2018-08-04 04:00:00 22.5 5 Oeste 6 Oeste 0 -- -- 52
2018-08-04 03:00:00 23.4 2 Noroeste 4 Norte 0 -- -- 49
2018-08-04 02:00:00 23.8 0 Calma 4 Noroeste 0 -- -- 47
2018-08-04 01:00:00 24.2 0 Calma 4 Sur 0 -- -- 46
2018-08-04 00:00:00 24.9 0 Calma 5 Sudoeste 0 -- -- 44
2018-08-03 23:00:00 25.7 0 Calma 11 Sudeste 0 -- -- 43
2018-08-03 22:00:00 26.8 9 Sudeste 17 Sudeste 0 -- -- 41
2018-08-03 21:00:00 29.6 12 Sudeste 17 Sudeste 0 -- -- 40
2018-08-03 20:00:00 32 14 Este 28 Este 0 -- -- 37
2018-08-03 19:00:00 32.9 22 Este 35 Este 0 -- -- 36
2018-08-03 18:00:00 35.2 26 Este 37 Este 0 -- -- 31
2018-08-03 17:00:00 36.5 22 Este 35 Este 0 -- -- 30
2018-08-03 16:00:00 37 19 Este 33 Este 0 -- -- 28
2018-08-03 15:00:00 37.1 20 Este 33 Este 0 -- -- 29
2018-08-03 14:00:00 37.3 18 Este 32 Este 0 -- -- 28
2018-08-03 13:00:00 36.4 14 Este 26 Sudeste 0 -- -- 26
2018-08-03 12:00:00 34.6 12 Sudeste 19 Sudeste 0 -- -- 28
2018-08-03 11:00:00 31.4 6 Sudeste 13 Sudeste 0 -- -- 37
2018-08-03 10:00:00 28.7 5 Sudeste 9 Este 0 -- -- 42
2018-08-03 09:00:00 27.1 5 Este 9 Nordeste 0 -- -- 46
2018-08-03 08:00:00 23.8 7 Norte 9 Noroeste 0 -- -- 46
2018-08-03 07:00:00 23.3 3 Noroeste 13 Norte 0 -- -- 48
2018-08-03 06:00:00 23.4 8 Noroeste 12 Noroeste 0 -- -- 51
2018-08-03 05:00:00 23.2 8 Noroeste 10 Noroeste 0 -- -- 56
2018-08-03 04:00:00 24.2 9 Noroeste 11 Noroeste 0 -- -- 55
2018-08-03 03:00:00 24.3 4 Noroeste 8 Noroeste 0 -- -- 58
2018-08-03 02:00:00 24.9 6 Noroeste 7 Noroeste 0 -- -- 60
2018-08-03 01:00:00 25.2 3 Oeste 4 Oeste 0 -- -- 61
2018-08-03 00:00:00 26.1 0 Calma 3 Sur 0 -- -- 59
2018-08-02 23:00:00 26.7 2 Norte 7 Nordeste 0 -- -- 58
2018-08-02 22:00:00 27.6 5 Este 12 Sudeste 0 -- -- 56
2018-08-02 21:00:00 30.5 6 Sudeste 16 Sudeste 0 -- -- 49
2018-08-02 20:00:00 32.7 8 Sudeste 22 Sudeste 0 -- -- 43
2018-08-02 19:00:00 34.1 13 Sudeste 28 Este 0 -- -- 40
2018-08-02 18:00:00 36.3 17 Sudeste 29 Sudeste 0 -- -- 37
2018-08-02 17:00:00 37 17 Sudeste 31 Este 0 -- -- 35
2018-08-02 16:00:00 37.1 17 Este 31 Sudeste 0 -- -- 35
2018-08-02 15:00:00 37.3 16 Este 28 Este 0 -- -- 30
2018-08-02 14:00:00 36.6 15 Sudeste 29 Este 0 -- -- 28
2018-08-02 13:00:00 36 14 Sudeste 31 Este 0 -- -- 27
2018-08-02 12:00:00 34.8 13 Este 27 Este 0 -- -- 24
2018-08-02 11:00:00 31.9 7 Sudeste 15 Sudeste 0 -- -- 26
2018-08-02 10:00:00 27.9 5 Sur 9 Sur 0 -- -- 31
2018-08-02 09:00:00 25.4 4 Noroeste 12 Noroeste 0 -- -- 36
2018-08-02 08:00:00 22.2 9 Noroeste 12 Noroeste 0 -- -- 40
2018-08-02 07:00:00 22 5 Norte 7 Norte 0 -- -- 40
2018-08-02 06:00:00 22.2 4 Norte 10 Norte 0 -- -- 40
2018-08-02 05:00:00 23 8 Norte 12 Noroeste 0 -- -- 38
2018-08-02 04:00:00 23.2 10 Noroeste 13 Noroeste 0 -- -- 40
2018-08-02 03:00:00 23.6 6 Norte 14 Norte 0 -- -- 36
2018-08-02 02:00:00 24.1 7 Norte 13 Norte 0 -- -- 40
2018-08-02 01:00:00 24.5 11 Norte 13 Norte 0 -- -- 46
2018-08-02 00:00:00 25.5 7 Norte 10 Noroeste 0 -- -- 49
2018-08-01 23:00:00 26.9 2 Oeste 4 Oeste 0 -- -- 47
2018-08-01 22:00:00 27.9 2 Este 8 Este 0 -- -- 45
2018-08-01 21:00:00 30.4 5 Este 19 Este 0 -- -- 41
2018-08-01 20:00:00 33.2 12 Sudeste 23 Sudeste 0 -- -- 34
2018-08-01 19:00:00 35 14 Sudeste 30 Este 0 -- -- 29
2018-08-01 18:00:00 35.6 14 Sudeste 33 Sudeste 0 -- -- 27
2018-08-01 17:00:00 36.4 20 Sudeste 35 Sudeste 0 -- -- 26
2018-08-01 16:00:00 37.4 21 Este 32 Este 0 -- -- 22
2018-08-01 15:00:00 37.1 17 Sudeste 35 Sudeste 0 -- -- 19
2018-08-01 14:00:00 37.1 15 Sudeste 31 Sudeste 0 -- -- 20
2018-08-01 13:00:00 36.1 14 Este 27 Este 0 -- -- 18
2018-08-01 12:00:00 34.7 11 Sudeste 22 Sudeste 0 -- -- 19
2018-08-01 11:00:00 30.5 6 Sudeste 12 Sudeste 0 -- -- 28
2018-08-01 10:00:00 28.3 4 Sudeste 9 Este 0 -- -- 29
2018-08-01 09:00:00 26.1 2 Noroeste 10 Norte 0 -- -- 26
2018-08-01 08:00:00 22.9 10 Noroeste 12 Noroeste 0 -- -- 27
2018-08-01 07:00:00 21.8 8 Nordeste 12 Norte 0 -- -- 29
2018-08-01 06:00:00 22.9 7 Norte 10 Norte 0 -- -- 26
2018-08-01 05:00:00 23.8 8 Noroeste 15 Norte 0 -- -- 25
2018-08-01 04:00:00 23.7 9 Noroeste 15 Norte 0 -- -- 25
2018-08-01 03:00:00 23.7 5 Noroeste 15 Noroeste 0 -- -- 28
2018-08-01 02:00:00 24.6 12 Noroeste 16 Noroeste 0 -- -- 29
2018-08-01 01:00:00 24.5 8 Norte 12 Noroeste 0 -- -- 37
2018-08-01 00:00:00 25.1 7 Norte 11 Norte 0 -- -- 48
2018-07-31 23:00:00 26.2 4 Norte 5 Norte 0 -- -- 43
2018-07-31 22:00:00 28.1 5 Sudeste 10 Sudeste 0 -- -- 39
2018-07-31 21:00:00 31 7 Sudeste 15 Este 0 -- -- 37
2018-07-31 20:00:00 33.5 10 Sudeste 19 Este 0 -- -- 34
2018-07-31 19:00:00 35 13 Sudeste 26 Sudeste 0 -- -- 31
2018-07-31 18:00:00 36.2 16 Sudeste 26 Este 0 -- -- 29
2018-07-31 17:00:00 37.2 18 Sudeste 29 Sudeste 0 -- -- 26
2018-07-31 16:00:00 37.4 16 Sudeste 32 Sudeste 0 -- -- 26
2018-07-31 15:00:00 36.5 18 Este 30 Sudeste 0 -- -- 31
2018-07-31 14:00:00 36.7 17 Este 30 Este 0 -- -- 32
2018-07-31 13:00:00 36 13 Sudeste 24 Este 0 -- -- 27
2018-07-31 12:00:00 34.2 10 Sudeste 23 Este 0 -- -- 28
2018-07-31 11:00:00 31.9 10 Este 17 Este 0 -- -- 32
2018-07-31 10:00:00 28.9 5 Sudeste 11 Este 0 -- -- 35
2018-07-31 09:00:00 26.5 3 Este 9 Nordeste 0 -- -- 38
2018-07-31 08:00:00 22.8 8 Norte 9 Norte 0 -- -- 39
2018-07-31 07:00:00 22 6 Noroeste 9 Noroeste 0 -- -- 40
2018-07-31 06:00:00 22.6 5 Norte 11 Noroeste 0 -- -- 39
2018-07-31 05:00:00 22.6 6 Norte 11 Nordeste 0 -- -- 36
2018-07-31 04:00:00 22.8 10 Nordeste 11 Nordeste 0 -- -- 45
2018-07-31 03:00:00 23.5 6 Noroeste 10 Noroeste 0 -- -- 36
2018-07-31 02:00:00 23.2 6 Noroeste 9 Noroeste 0 -- -- 47
2018-07-31 01:00:00 24.2 3 Norte 15 Oeste 0 -- -- 47
2018-07-31 00:00:00 24.5 6 Oeste 9 Oeste 0 -- -- 49
2018-07-30 23:00:00 25.4 5 Sudoeste 8 Este 0 -- -- 51
2018-07-30 22:00:00 26.6 6 Este 17 Este 0 -- -- 48
2018-07-30 21:00:00 28.9 15 Este 25 Este 0 -- -- 39
2018-07-30 20:00:00 31.8 17 Este 27 Este 0 -- -- 33
2018-07-30 19:00:00 34.5 18 Este 33 Este 0 -- -- 26
2018-07-30 18:00:00 36.3 21 Este 34 Sudeste 0 -- -- 20
2018-07-30 17:00:00 37.5 17 Sudeste 34 Sudeste 0 -- -- 18
2018-07-30 16:00:00 37.9 21 Sudeste 31 Este 0 -- -- 17
2018-07-30 15:00:00 38 19 Sudeste 34 Este 0 -- -- 17
2018-07-30 14:00:00 37.7 17 Sudeste 32 Este 0 -- -- 18
2018-07-30 13:00:00 36.8 9 Sudeste 25 Este 0 -- -- 19
2018-07-30 12:00:00 35 8 Sur 14 Sudeste 0 -- -- 21
2018-07-30 11:00:00 31.9 8 Sudoeste 17 Sudoeste 0 -- -- 27
2018-07-30 10:00:00 28.5 10 Sudoeste 17 Sudoeste 0 -- -- 32
2018-07-30 09:00:00 25.7 7 Sudoeste 17 Noroeste 0 -- -- 35
2018-07-30 08:00:00 23.5 9 Oeste 21 Oeste 0 -- -- 38
2018-07-30 07:00:00 23 14 Oeste 23 Oeste 0 -- -- 37
2018-07-30 06:00:00 23.1 8 Noroeste 10 Oeste 0 -- -- 35
2018-07-30 05:00:00 24.1 9 Noroeste 14 Oeste 0 -- -- 32
2018-07-30 04:00:00 24.7 9 Noroeste 18 Oeste 0 -- -- 30
2018-07-30 03:00:00 25.2 6 Noroeste 15 Noroeste 0 -- -- 29
2018-07-30 02:00:00 26.7 7 Oeste 27 Noroeste 0 -- -- 30
2018-07-30 01:00:00 28 12 Noroeste 29 Noroeste 0 -- -- 36
2018-07-30 00:00:00 26.6 10 Oeste 18 Oeste 0 -- -- 44
2018-07-29 23:00:00 27.5 3 Oeste 9 Sur 0 -- -- 47
2018-07-29 22:00:00 29.6 5 Sur 13 Este 0 -- -- 43
2018-07-29 21:00:00 33.1 6 Este 18 Este 0 -- -- 32
2018-07-29 20:00:00 35.2 12 Este 21 Este 0 -- -- 25
2018-07-29 19:00:00 36.3 12 Este 25 Este 0 -- -- 21
2018-07-29 18:00:00 36.7 15 Este 29 Este 0 -- -- 21
2018-07-29 17:00:00 36.6 20 Este 35 Este 0 -- -- 22
2018-07-29 16:00:00 37 19 Este 37 Este 0 -- -- 23
2018-07-29 15:00:00 37.2 22 Este 35 Este 0 -- -- 23
2018-07-29 14:00:00 37.6 16 Sudeste 27 Sudeste 0 -- -- 18
2018-07-29 13:00:00 35.2 6 Oeste 26 Sudoeste 0 -- -- 16
2018-07-29 12:00:00 33.5 17 Sudoeste 30 Sudoeste 0 -- -- 19
2018-07-29 11:00:00 31 22 Sudoeste 29 Sudoeste 0 -- -- 21
2018-07-29 10:00:00 28.2 13 Sudoeste 19 Sudoeste 0 -- -- 24
2018-07-29 09:00:00 25.8 8 Oeste 15 Oeste 0 -- -- 25
2018-07-29 08:00:00 24.2 5 Noroeste 23 Oeste 0 -- -- 24
2018-07-29 07:00:00 24.9 17 Oeste 28 Oeste 0 -- -- 22
2018-07-29 06:00:00 24.3 13 Oeste 24 Oeste 0 -- -- 26
2018-07-29 05:00:00 25.6 13 Oeste 25 Oeste 0 -- -- 26
2018-07-29 04:00:00 27.1 19 Oeste 28 Oeste 0 -- -- 25
2018-07-29 03:00:00 27.1 17 Oeste 27 Oeste 0 -- -- 27
2018-07-29 02:00:00 26.8 13 Oeste 26 Oeste 0 -- -- 29
2018-07-29 01:00:00 28.3 18 Oeste 25 Oeste 0 -- -- 28
2018-07-29 00:00:00 28.1 10 Noroeste 15 Oeste 0 -- -- 33
2018-07-28 23:00:00 28.3 6 Sudoeste 9 Sudoeste 0 -- -- 44
2018-07-28 22:00:00 30.5 2 Sudeste 17 Este 0 -- -- 37
2018-07-28 21:00:00 33.5 10 Este 21 Este 0 -- -- 30
2018-07-28 20:00:00 35.8 16 Este 26 Este 0 -- -- 25
2018-07-28 19:00:00 37.1 15 Este 31 Este 0 -- -- 24
2018-07-28 18:00:00 38 17 Este 31 Este 0 -- -- 21
2018-07-28 17:00:00 38 19 Este 33 Sudeste 0 -- -- 24
2018-07-28 16:00:00 37.9 20 Este 33 Este 0 -- -- 24
2018-07-28 15:00:00 38.1 24 Este 37 Este 0 -- -- 24
2018-07-28 14:00:00 37.9 18 Sudeste 28 Sudeste 0 -- -- 23
2018-07-28 13:00:00 36.8 10 Este 20 Este 0 -- -- 18
2018-07-28 12:00:00 34.2 8 Sur 17 Sur 0 -- -- 21
2018-07-28 11:00:00 31.9 4 Sudeste 11 Sudoeste 0 -- -- 27
2018-07-28 10:00:00 28.7 8 Sudoeste 14 Sudoeste 0 -- -- 33
2018-07-28 09:00:00 26.6 4 Este 9 Noroeste 0 -- -- 36
2018-07-28 08:00:00 21.3 4 Norte 9 Noroeste 0 -- -- 43
2018-07-28 07:00:00 20 4 Nordeste 10 Nordeste 0 -- -- 53
2018-07-28 06:00:00 21.4 5 Sudeste 10 Oeste 0 -- -- 68
2018-07-28 05:00:00 21.8 7 Noroeste 12 Norte 0 -- -- 48
2018-07-28 04:00:00 20.6 8 Noroeste 12 Noroeste 0 -- -- 78
2018-07-28 03:00:00 20.9 4 Noroeste 5 Noroeste 0 -- -- 83
2018-07-28 02:00:00 21.4 3 Noroeste 5 Noroeste 0 -- -- 81
2018-07-28 01:00:00 22.2 3 Sur 5 Sur 0 -- -- 77
2018-07-28 00:00:00 22.8 3 Sudoeste 6 Nordeste 0 -- -- 75
2018-07-27 23:00:00 23.5 3 Este 7 Sur 0 -- -- 73
2018-07-27 22:00:00 24.7 6 Sudoeste 12 Sudeste 0 -- -- 68
2018-07-27 21:00:00 27.4 9 Sudeste 19 Este 0 -- -- 59
2018-07-27 20:00:00 30.1 13 Este 25 Este 0 -- -- 50
2018-07-27 19:00:00 31.4 16 Este 33 Este 0 -- -- 45
2018-07-27 18:00:00 32.4 24 Este 38 Este 0 -- -- 44
2018-07-27 17:00:00 34 22 Este 37 Este 0 -- -- 38
2018-07-27 16:00:00 34.3 23 Este 36 Este 0 -- -- 40
2018-07-27 15:00:00 34.4 21 Este 32 Este 0 -- -- 38
2018-07-27 14:00:00 34.1 17 Sudeste 28 Este 0 -- -- 41
2018-07-27 13:00:00 33.5 13 Sudeste 25 Este 0 -- -- 40
2018-07-27 12:00:00 32.4 12 Este 22 Sudeste 0 -- -- 40
2018-07-27 11:00:00 28.9 5 Sudeste 14 Sudeste 0 -- -- 49
2018-07-27 10:00:00 26.3 5 Sudeste 12 Este 0 -- -- 53
2018-07-27 09:00:00 23.5 6 Sudeste 14 Nordeste 0 -- -- 56
2018-07-27 08:00:00 20.6 6 Norte 9 Nordeste 0 -- -- 73
2018-07-27 07:00:00 20.2 2 Este 8 Norte 0 -- -- 65
2018-07-27 06:00:00 20.8 5 Noroeste 9 Norte 0 -- -- 65
2018-07-27 05:00:00 21.4 6 Noroeste 11 Noroeste 0 -- -- 68
2018-07-27 04:00:00 21.4 9 Noroeste 11 Noroeste 0 -- -- 68
2018-07-27 03:00:00 21.9 3 Nordeste 5 Noroeste 0 -- -- 72
2018-07-27 02:00:00 22.6 3 Norte 6 Noroeste 0 -- -- 71
2018-07-27 01:00:00 22.7 3 Nordeste 7 Nordeste 0 -- -- 70
2018-07-27 00:00:00 23.1 4 Nordeste 6 Norte 0 -- -- 70
2018-07-26 23:00:00 24.1 3 Sudeste 10 Sudeste 0 -- -- 66
2018-07-26 22:00:00 25.5 5 Sudeste 17 Sudeste 0 -- -- 64
2018-07-26 21:00:00 28.4 12 Sudeste 21 Este 0 -- -- 56
2018-07-26 20:00:00 30.2 13 Este 28 Este 0 -- -- 50
2018-07-26 19:00:00 31.4 19 Este 32 Este 0 -- -- 48
2018-07-26 18:00:00 32.9 22 Este 33 Este 0 -- -- 44
2018-07-26 17:00:00 33.7 22 Este 33 Este 0 -- -- 43
2018-07-26 16:00:00 34.4 22 Este 35 Este 0 -- -- 41
2018-07-26 15:00:00 35.1 21 Este 32 Este 0 -- -- 40
2018-07-26 14:00:00 34.7 15 Este 27 Sudeste 0 -- -- 37
2018-07-26 13:00:00 32.8 10 Este 22 Sudeste 0 -- -- 39
2018-07-26 12:00:00 30.4 9 Este 17 Sudeste 0 -- -- 48
2018-07-26 11:00:00 27.1 6 Sudeste 12 Este 0 -- -- 61
2018-07-26 10:00:00 23.4 3 Sudoeste 6 Oeste 0 -- -- 75
2018-07-26 09:00:00 21.5 0 Calma 5 Sur 0 -- -- 86
2018-07-26 08:00:00 19.9 3 Sudoeste 4 Sur 0 -- -- 85
2018-07-26 07:00:00 19.8 4 Nordeste 10 Este 0 -- -- 86
2018-07-26 06:00:00 20.3 5 Nordeste 9 Norte 0 -- -- 75
2018-07-26 05:00:00 21.3 9 Norte 12 Noroeste 0 -- -- 71
2018-07-26 04:00:00 21.1 6 Oeste 9 Oeste 0 -- -- 73
2018-07-26 03:00:00 21.8 5 Noroeste 8 Noroeste 0 -- -- 76
2018-07-26 02:00:00 22.4 2 Norte 3 Este 0 -- -- 78
2018-07-26 01:00:00 23 0 Calma 4 Nordeste 0 -- -- 75
2018-07-26 00:00:00 23.6 0 Calma 5 Sur 0 -- -- 73
2018-07-25 23:00:00 24.3 0 Calma 6 Este 0 -- -- 71
2018-07-25 22:00:00 25.5 4 Sudeste 13 Sudeste 0 -- -- 66
2018-07-25 21:00:00 27.6 9 Sudeste 23 Este 0 -- -- 59
2018-07-25 20:00:00 29.7 15 Este 27 Este 0 -- -- 51
2018-07-25 19:00:00 31.2 19 Este 32 Este 0 -- -- 47
2018-07-25 18:00:00 32.7 22 Este 35 Este 0 -- -- 42
2018-07-25 17:00:00 34.7 21 Este 36 Este 0 -- -- 33
2018-07-25 16:00:00 34.4 24 Este 35 Este 0 -- -- 34
2018-07-25 15:00:00 35.4 23 Este 35 Este 0 -- -- 34
2018-07-25 14:00:00 35.8 21 Este 30 Este 0 -- -- 32
2018-07-25 13:00:00 35.3 15 Este 26 Este 0 -- -- 28
2018-07-25 12:00:00 33.4 8 Sudeste 18 Este 0 -- -- 29
2018-07-25 11:00:00 30.8 8 Sudeste 16 Sudeste 0 -- -- 34
2018-07-25 10:00:00 27.8 8 Sudeste 14 Sudeste 0 -- -- 41
2018-07-25 09:00:00 26.5 9 Este 13 Este 0 -- -- 39
2018-07-25 08:00:00 23.6 6 Nordeste 12 Nordeste 0 -- -- 36
2018-07-25 07:00:00 23 7 Oeste 9 Oeste 0 -- -- 37
2018-07-25 06:00:00 22.4 7 Oeste 12 Noroeste 0 -- -- 40
2018-07-25 05:00:00 23.1 10 Noroeste 12 Noroeste 0 -- -- 41
2018-07-25 04:00:00 23.1 5 Norte 12 Noroeste 0 -- -- 44
2018-07-25 03:00:00 23.5 4 Noroeste 9 Norte 0 -- -- 53
2018-07-25 02:00:00 23.8 3 Este 5 Nordeste 0 -- -- 58
2018-07-25 01:00:00 24.6 2 Norte 7 Nordeste 0 -- -- 56
2018-07-25 00:00:00 25.5 3 Sudeste 4 Sudeste 0 -- -- 55
2018-07-24 23:00:00 26.4 2 Noroeste 6 Sudoeste 0 -- -- 52
2018-07-24 22:00:00 27.8 5 Sudeste 17 Este 0 -- -- 48
2018-07-24 21:00:00 30.9 12 Este 19 Este 0 -- -- 42
2018-07-24 20:00:00 33.7 12 Este 24 Este 0 -- -- 36
2018-07-24 19:00:00 34.9 16 Este 31 Este 0 -- -- 33
2018-07-24 18:00:00 35 18 Este 32 Este 0 -- -- 35
2018-07-24 17:00:00 34.8 22 Este 36 Este 0 -- -- 35
2018-07-24 16:00:00 35.8 21 Este 35 Este 0 -- -- 34
2018-07-24 15:00:00 36 20 Este 31 Este 0 -- -- 32
2018-07-24 14:00:00 36.1 15 Este 26 Este 0 -- -- 32
2018-07-24 13:00:00 34.8 16 Este 26 Este 0 -- -- 32
2018-07-24 12:00:00 33.4 13 Este 24 Sudeste 0 -- -- 33
2018-07-24 11:00:00 29.9 7 Sudeste 14 Este 0 -- -- 39
2018-07-24 10:00:00 26.6 4 Sudeste 8 Sudeste 0 -- -- 48
2018-07-24 09:00:00 24.6 3 Este 6 Nordeste 0 -- -- 54
2018-07-24 08:00:00 20.8 5 Norte 9 Norte 0 -- -- 59
2018-07-24 07:00:00 19.9 8 Norte 12 Noroeste 0 -- -- 63
2018-07-24 06:00:00 19.9 7 Noroeste 9 Noroeste 0 -- -- 65
2018-07-24 05:00:00 20 4 Norte 8 Norte 0 -- -- 65
2018-07-24 04:00:00 20.9 5 Norte 11 Noroeste 0 -- -- 68
2018-07-24 03:00:00 21.4 5 Norte 7 Noroeste 0 -- -- 74
2018-07-24 02:00:00 22.1 0 Calma 4 Oeste 0 -- -- 76
2018-07-24 01:00:00 22.5 2 Oeste 6 Oeste 0 -- -- 75
2018-07-24 00:00:00 23.1 3 Sudoeste 5 Sudeste 0 -- -- 76
2018-07-23 23:00:00 23.9 3 Sudeste 10 Este 0 -- -- 71
2018-07-23 22:00:00 25 8 Este 19 Este 0 -- -- 66
2018-07-23 21:00:00 27.5 11 Este 24 Este 0 -- -- 53
2018-07-23 20:00:00 29.7 15 Este 24 Este 0 -- -- 41
2018-07-23 19:00:00 32.1 15 Sudeste 30 Sudeste 0 -- -- 40
2018-07-23 18:00:00 33.2 16 Este 31 Este 0 -- -- 37
2018-07-23 17:00:00 33.7 17 Este 32 Este 0 -- -- 36
2018-07-23 16:00:00 34 17 Este 31 Sudeste 0 -- -- 35
2018-07-23 15:00:00 33.7 19 Este 31 Este 0 -- -- 37
2018-07-23 14:00:00 32.6 15 Este 30 Este 0 -- -- 40
2018-07-23 13:00:00 31.6 13 Este 29 Sudeste 0 -- -- 43
2018-07-23 12:00:00 30.4 10 Este 21 Sudeste 0 -- -- 46
2018-07-23 11:00:00 27.1 8 Sudeste 18 Sudeste 0 -- -- 59
2018-07-23 10:00:00 23.9 3 Sur 6 Sur 0 -- -- 75
2018-07-23 09:00:00 21.7 3 Oeste 8 Nordeste 0 -- -- 88
2018-07-23 08:00:00 20.6 3 Oeste 4 Oeste 0 -- -- 85
2018-07-23 07:00:00 20.5 2 Sur 6 Norte 0 -- -- 84
2018-07-23 06:00:00 20.9 4 Norte 6 Norte 0 -- -- 85
2018-07-23 05:00:00 21.5 3 Sudoeste 5 Nordeste 0 -- -- 83
2018-07-23 04:00:00 22 4 Este 8 Sudeste 0 -- -- 84
2018-07-23 03:00:00 23.2 4 Sudeste 7 Este 0 -- -- 79
2018-07-23 02:00:00 23.7 2 Sudoeste 6 Sudoeste 0 -- -- 78
2018-07-23 01:00:00 23.6 2 Sudoeste 6 Sudeste 0 -- -- 78
2018-07-23 00:00:00 23.7 4 Sudeste 12 Sudeste 0 -- -- 77
2018-07-22 23:00:00 23.8 10 Sudeste 19 Este 0 -- -- 77
2018-07-22 22:00:00 24.1 12 Sudeste 22 Este 0 -- -- 75
2018-07-22 21:00:00 25.3 13 Sudeste 26 Sudeste 0 -- -- 69
2018-07-22 20:00:00 27.7 16 Sudeste 30 Este 0 -- -- 60
2018-07-22 19:00:00 30.4 18 Sudeste 35 Este 0 -- -- 53
2018-07-22 18:00:00 31.5 19 Sudeste 32 Este 0 -- -- 52
2018-07-22 17:00:00 31.9 19 Sudeste 33 Este 0 -- -- 50
2018-07-22 16:00:00 32.8 21 Este 39 Sudeste 0 -- -- 47
2018-07-22 15:00:00 33.2 21 Sudeste 34 Sudeste 0 -- -- 44
2018-07-22 14:00:00 33 14 Este 27 Sudeste 0 -- -- 41
2018-07-22 13:00:00 31.7 10 Sudeste 24 Este 0 -- -- 42
2018-07-22 12:00:00 29.6 8 Sudeste 24 Sudeste 0 -- -- 48
2018-07-22 11:00:00 27.5 6 Este 18 Sur 0 -- -- 55
2018-07-22 10:00:00 24 2 Sudoeste 10 Sudoeste 0 -- -- 66
2018-07-22 09:00:00 22.1 6 Sudoeste 10 Sur 0 -- -- 76
2018-07-22 08:00:00 20.9 6 Noroeste 9 Noroeste 0 -- -- 77
2018-07-22 07:00:00 21 3 Noroeste 4 Noroeste 0 -- -- 83
2018-07-22 06:00:00 21.2 2 Sudeste 8 Este 0 -- -- 83
2018-07-22 05:00:00 21.2 5 Este 14 Este 0 -- -- 78
2018-07-22 04:00:00 21.6 8 Este 13 Este 0 -- -- 75
2018-07-22 03:00:00 22.2 2 Oeste 8 Noroeste 0 -- -- 63
2018-07-22 02:00:00 22.5 5 Noroeste 6 Noroeste 0 -- -- 63
2018-07-22 01:00:00 23.2 2 Oeste 4 Noroeste 0 -- -- 66
2018-07-22 00:00:00 23.8 2 Este 4 Sudeste 0 -- -- 63
2018-07-21 23:00:00 24.4 3 Sudeste 9 Sudeste 0 -- -- 61
2018-07-21 22:00:00 25.7 5 Sudeste 13 Sudeste 0 -- -- 58
2018-07-21 21:00:00 28.1 9 Sudeste 23 Sudeste 0 -- -- 46
2018-07-21 20:00:00 29.6 15 Este 29 Este 0 -- -- 44
2018-07-21 19:00:00 30.8 18 Este 32 Este 0 -- -- 41
2018-07-21 18:00:00 32 22 Este 35 Este 0 -- -- 38
2018-07-21 17:00:00 32.7 24 Este 35 Este 0 -- -- 41
2018-07-21 16:00:00 33.9 21 Este 33 Este 0 -- -- 36
2018-07-21 15:00:00 33.6 20 Sudeste 32 Sudeste 0 -- -- 35
2018-07-21 14:00:00 32.6 17 Sudeste 31 Este 0 -- -- 41
2018-07-21 13:00:00 31.8 18 Sudeste 31 Sudeste 0 -- -- 45
2018-07-21 12:00:00 31.4 18 Este 31 Este 0 -- -- 43
2018-07-21 11:00:00 30.5 19 Este 28 Este 0 -- -- 40
2018-07-21 10:00:00 28.4 3 Sudeste 8 Sudoeste 0 -- -- 33
2018-07-21 09:00:00 25.7 4 Noroeste 17 Noroeste 0 -- -- 38
2018-07-21 08:00:00 23 12 Noroeste 30 Oeste 0 -- -- 42
2018-07-21 07:00:00 23.8 16 Oeste 27 Oeste 0 -- -- 39
2018-07-21 06:00:00 24.5 21 Oeste 32 Oeste 0 -- -- 38
2018-07-21 05:00:00 24.3 19 Oeste 27 Sudoeste 0 -- -- 38
2018-07-21 04:00:00 24.4 5 Oeste 9 Sudoeste 0 -- -- 35
2018-07-21 03:00:00 25 9 Oeste 28 Oeste 0 -- -- 32
2018-07-21 02:00:00 26.1 20 Oeste 28 Oeste 0 -- -- 30
2018-07-21 01:00:00 25.8 18 Oeste 22 Oeste 0 -- -- 29
2018-07-21 00:00:00 24.4 9 Oeste 12 Oeste 0 -- -- 36
2018-07-20 23:00:00 25.4 5 Oeste 7 Oeste 0 -- -- 49
2018-07-20 22:00:00 27.5 4 Sudoeste 9 Sudeste 0 -- -- 45
2018-07-20 21:00:00 31 5 Sudeste 15 Sudeste 0 -- -- 38
2018-07-20 20:00:00 32.9 11 Este 19 Sudeste 0 -- -- 35
2018-07-20 19:00:00 34.2 14 Este 27 Sudeste 0 -- -- 34
2018-07-20 18:00:00 35.2 18 Este 26 Este 0 -- -- 33
2018-07-20 17:00:00 36.1 14 Este 27 Este 0 -- -- 31
2018-07-20 16:00:00 35.5 19 Este 29 Este 0 -- -- 31
2018-07-20 15:00:00 35.2 18 Este 31 Este 0 -- -- 35
2018-07-20 14:00:00 35.5 20 Este 32 Este 0 -- -- 33
2018-07-20 13:00:00 34.4 9 Sudeste 19 Sudeste 0 -- -- 29
2018-07-20 12:00:00 32.5 8 Este 15 Este 0 -- -- 36
2018-07-20 11:00:00 27.9 4 Sudeste 18 Este 0 -- -- 41
2018-07-20 10:00:00 24.8 15 Este 20 Este 0 -- -- 55
2018-07-20 09:00:00 23.7 9 Noroeste 20 Norte 0 -- -- 59
2018-07-20 08:00:00 22.2 3 Sudeste 8 Sudeste 0 -- -- 69
2018-07-20 07:00:00 22 9 Nordeste 12 Nordeste 0 -- -- 67
2018-07-20 06:00:00 22.1 3 Nordeste 10 Nordeste 0 -- -- 67
2018-07-20 05:00:00 22.3 4 Oeste 11 Sur 0 -- -- 67
2018-07-20 04:00:00 22.4 2 Oeste 8 Norte 0 -- -- 67
2018-07-20 03:00:00 22.6 0 Calma 7 Este 0 -- -- 66
2018-07-20 02:00:00 23.1 4 Nordeste 8 Nordeste 0 -- -- 64
2018-07-20 01:00:00 23 5 Norte 11 Sudoeste 0 -- -- 65
2018-07-20 00:00:00 23.2 6 Oeste 9 Oeste 0 -- -- 63